Loei, Thailand
Current Conditions -  °F | °C
As of 5:00 PM on Thursday 18 Dec 2014 (Local Time) from VLVT Reporting Station
Broken Clouds Broken Clouds  
Wind Chill: 75°   Ceiling: 4000
Heat Index: 75°   Visibility: 5mi
Dew Point: 46°   Wind: 5mph
Humidity: 36%   Direction: 90°E
Pressure: 30.03"   Gusts: NA
Location:  17.49°N, 101.73°E
Report Text: VLVT 181000Z 09004KT 8000 BKN040 24/08 Q1017 NOSIG
Loading
Personal Weather Stations






























Interactive Weather Map New forecast layout! Learn more

10-Day Weather Forecast

Advertisements
Track Severe Weather on mobile